createdAt,value
2019-05-26T00:01:09.862Z,10.62
2019-05-26T00:04:15.079Z,10.45
2019-05-26T00:07:30.078Z,10.33
2019-05-26T00:10:27.254Z,10.22
2019-05-26T00:13:32.538Z,10.42
2019-05-26T00:16:37.750Z,10.37
2019-05-26T00:19:43.033Z,10.29
2019-05-26T00:22:48.301Z,10.23
2019-05-26T00:25:53.441Z,10.08
2019-05-26T00:28:58.733Z,10.01
2019-05-26T00:32:03.836Z,10.07
2019-05-26T00:35:09.250Z,10.01
2019-05-26T00:38:14.548Z,10.07
2019-05-26T00:41:19.741Z,10.09
2019-05-26T00:44:24.891Z,10.09
2019-05-26T00:47:30.059Z,10.22
2019-05-26T00:50:35.290Z,10.27
2019-05-26T00:53:40.521Z,10.37
2019-05-26T00:56:45.760Z,10.57
2019-05-26T00:59:50.919Z,10.64
2019-05-26T01:02:56.067Z,10.77
2019-05-26T01:06:01.243Z,10.78
2019-05-26T01:09:08.312Z,10.74
2019-05-26T01:12:13.466Z,10.70
2019-05-26T01:15:18.667Z,10.57
2019-05-26T01:18:23.906Z,10.56
2019-05-26T01:21:29.202Z,10.49
2019-05-26T01:24:34.286Z,10.50
2019-05-26T01:27:40.464Z,10.46
2019-05-26T01:30:45.670Z,10.53
2019-05-26T01:33:50.889Z,10.47
2019-05-26T01:36:56.306Z,10.34
2019-05-26T01:40:01.437Z,10.29
2019-05-26T01:43:06.847Z,10.22
2019-05-26T01:46:12.012Z,10.35
2019-05-26T01:49:17.223Z,10.35
2019-05-26T01:52:22.336Z,10.35
2019-05-26T01:55:27.482Z,10.54
2019-05-26T01:58:32.670Z,10.46
2019-05-26T02:01:37.794Z,10.55
2019-05-26T02:04:42.913Z,10.49
2019-05-26T02:07:48.057Z,10.68
2019-05-26T02:10:53.214Z,10.63
2019-05-26T02:13:58.341Z,10.56
2019-05-26T02:17:03.572Z,10.59
2019-05-26T02:20:09.147Z,10.55
2019-05-26T02:23:14.270Z,10.52
2019-05-26T02:26:19.376Z,10.50
2019-05-26T02:29:24.502Z,10.50
2019-05-26T02:32:29.679Z,10.39
2019-05-26T02:35:34.841Z,10.20
2019-05-26T02:39:00.338Z,10.02
2019-05-26T02:41:46.891Z,9.98
2019-05-26T02:44:52.025Z,9.88
2019-05-26T02:47:57.466Z,9.67
2019-05-26T02:51:02.655Z,9.55
2019-05-26T02:54:10.918Z,9.57
2019-05-26T02:57:16.118Z,9.57
2019-05-26T03:00:41.370Z,9.44
2019-05-26T03:03:47.576Z,9.27
2019-05-26T03:06:54.066Z,9.45
2019-05-26T03:10:00.817Z,9.22
2019-05-26T03:13:07.114Z,9.10
2019-05-26T03:16:13.902Z,8.89
2019-05-26T03:19:20.127Z,9.02
2019-05-26T03:22:28.582Z,8.94
2019-05-26T03:25:35.512Z,8.99
2019-05-26T03:28:40.705Z,9.10
2019-05-26T03:31:45.959Z,9.04
2019-05-26T03:34:51.213Z,9.08
2019-05-26T03:37:56.311Z,9.08
2019-05-26T03:41:01.445Z,8.99
2019-05-26T03:44:06.645Z,8.92
2019-05-26T03:47:16.380Z,8.87
2019-05-26T03:50:18.609Z,8.87
2019-05-26T03:53:23.731Z,8.93
2019-05-26T03:56:28.886Z,9.01
2019-05-26T03:59:34.054Z,9.33
2019-05-26T04:02:39.149Z,10.18
2019-05-26T04:05:44.447Z,10.72
2019-05-26T04:08:49.552Z,11.26
2019-05-26T04:11:54.675Z,11.69
2019-05-26T04:14:59.841Z,12.13
2019-05-26T04:18:05.071Z,12.90
2019-05-26T04:21:10.210Z,13.09
2019-05-26T04:24:15.360Z,14.03
2019-05-26T04:27:20.523Z,14.85
2019-05-26T04:30:25.696Z,14.46
2019-05-26T04:33:30.898Z,14.70
2019-05-26T04:36:36.042Z,13.85
2019-05-26T04:39:41.250Z,14.07
2019-05-26T04:42:46.431Z,15.38
2019-05-26T04:45:51.602Z,14.95
2019-05-26T04:48:56.747Z,14.81
2019-05-26T04:52:01.967Z,16.90
2019-05-26T04:55:07.714Z,16.63
2019-05-26T04:58:12.875Z,17.17
2019-05-26T05:01:18.044Z,17.88
2019-05-26T05:04:23.317Z,18.67
2019-05-26T05:07:28.936Z,17.35
2019-05-26T05:10:42.281Z,18.05
2019-05-26T05:13:40.984Z,17.37
2019-05-26T05:16:46.218Z,19.00
2019-05-26T05:19:51.426Z,18.11
2019-05-26T05:22:56.556Z,17.48
2019-05-26T05:26:01.747Z,17.40
2019-05-26T05:29:07.147Z,19.40
2019-05-26T05:32:12.287Z,19.18
2019-05-26T05:35:17.832Z,19.21
2019-05-26T05:38:24.113Z,19.30
2019-05-26T05:41:29.345Z,19.35
2019-05-26T05:44:34.518Z,19.45
2019-05-26T05:47:40.635Z,19.17
2019-05-26T05:50:45.790Z,19.56
2019-05-26T05:53:50.932Z,17.92
2019-05-26T05:56:56.129Z,18.94
2019-05-26T06:00:01.319Z,18.73
2019-05-26T06:03:06.454Z,18.99
2019-05-26T06:06:11.618Z,18.99
2019-05-26T06:09:16.799Z,20.02
2019-05-26T06:12:21.942Z,18.16
2019-05-26T06:15:27.158Z,18.16
2019-05-26T06:18:32.347Z,17.91
2019-05-26T06:21:37.496Z,17.52
2019-05-26T06:24:42.674Z,17.23
2019-05-26T06:27:47.762Z,17.66
2019-05-26T06:30:52.951Z,19.49
2019-05-26T06:33:59.723Z,19.08
2019-05-26T06:37:04.978Z,19.32
2019-05-26T06:40:10.288Z,19.06
2019-05-26T06:43:15.469Z,18.58
2019-05-26T06:46:20.611Z,18.91
2019-05-26T06:49:25.815Z,17.78
2019-05-26T06:52:30.943Z,18.58
2019-05-26T06:55:36.132Z,18.83
2019-05-26T06:58:41.348Z,18.96
2019-05-26T07:01:46.515Z,18.26
2019-05-26T07:04:51.678Z,18.77
2019-05-26T07:07:56.827Z,19.21
2019-05-26T07:11:01.956Z,19.80
2019-05-26T07:14:07.233Z,19.50
2019-05-26T07:17:12.428Z,19.95
2019-05-26T07:20:19.051Z,19.82
2019-05-26T07:23:24.176Z,19.04
2019-05-26T07:26:29.367Z,19.04
2019-05-26T07:29:34.550Z,19.17
2019-05-26T07:32:40.486Z,19.93
2019-05-26T07:35:45.643Z,19.76
2019-05-26T07:38:50.950Z,19.98
2019-05-26T07:42:09.194Z,20.06
2019-05-26T07:45:03.059Z,20.22
2019-05-26T07:48:08.432Z,20.04
2019-05-26T07:51:13.685Z,20.76
2019-05-26T07:54:25.677Z,20.90
2019-05-26T07:57:25.749Z,21.20
2019-05-26T08:00:30.983Z,21.58
2019-05-26T08:03:36.313Z,21.94
2019-05-26T08:06:41.527Z,22.70
2019-05-26T08:09:46.657Z,21.81
2019-05-26T08:12:51.806Z,22.28
2019-05-26T08:15:57.063Z,22.73
2019-05-26T08:19:02.160Z,21.68
2019-05-26T08:22:07.438Z,21.20
2019-05-26T08:25:12.590Z,21.35
2019-05-26T08:28:17.697Z,21.17
2019-05-26T08:31:23.139Z,21.46
2019-05-26T08:34:28.336Z,21.50
2019-05-26T08:37:34.643Z,21.78
2019-05-26T08:40:39.778Z,22.02
2019-05-26T08:43:44.983Z,22.83
2019-05-26T08:46:50.102Z,22.47
2019-05-26T08:49:55.256Z,22.08
2019-05-26T08:53:00.494Z,22.56
2019-05-26T08:56:05.806Z,23.16
2019-05-26T08:59:10.961Z,23.11
2019-05-26T09:02:16.143Z,23.00
2019-05-26T09:05:22.025Z,22.81
2019-05-26T09:08:27.169Z,23.33
2019-05-26T09:11:32.619Z,23.65
2019-05-26T09:14:37.856Z,22.80
2019-05-26T09:17:45.149Z,22.15
2019-05-26T09:20:50.369Z,22.06
2019-05-26T09:23:55.639Z,22.46
2019-05-26T09:27:00.816Z,22.51
2019-05-26T09:30:06.693Z,22.72
2019-05-26T09:33:11.911Z,22.41
2019-05-26T09:36:17.199Z,22.49
2019-05-26T09:39:22.435Z,23.21
2019-05-26T09:42:27.546Z,23.36
2019-05-26T09:45:32.680Z,23.25
2019-05-26T09:48:37.928Z,23.78
2019-05-26T09:51:43.054Z,23.43
2019-05-26T09:54:48.208Z,22.86
2019-05-26T09:57:53.552Z,22.77
2019-05-26T10:00:58.707Z,23.84
2019-05-26T10:04:03.922Z,23.93
2019-05-26T10:07:12.229Z,23.82
2019-05-26T10:10:16.687Z,23.83
2019-05-26T10:13:31.269Z,23.58
2019-05-26T10:16:28.840Z,23.47
2019-05-26T10:19:33.966Z,23.79
2019-05-26T10:22:39.150Z,22.86
2019-05-26T10:25:44.318Z,23.22
2019-05-26T10:28:49.531Z,23.38
2019-05-26T10:31:54.765Z,24.51
2019-05-26T10:34:59.953Z,25.18
2019-05-26T10:38:05.447Z,24.64
2019-05-26T10:41:10.647Z,24.52
2019-05-26T10:44:15.886Z,23.90
2019-05-26T10:47:21.056Z,23.99
2019-05-26T10:50:26.228Z,22.79
2019-05-26T10:53:31.351Z,23.15
2019-05-26T10:56:36.522Z,23.63
2019-05-26T10:59:41.675Z,24.12
2019-05-26T11:02:47.899Z,23.64
2019-05-26T11:05:53.243Z,23.63
2019-05-26T11:08:58.486Z,23.63
2019-05-26T11:12:03.663Z,22.89
2019-05-26T11:15:09.624Z,22.67
2019-05-26T11:18:14.810Z,23.64
2019-05-26T11:21:19.996Z,24.29
2019-05-26T11:24:25.138Z,24.19
2019-05-26T11:27:30.367Z,24.01
2019-05-26T11:30:35.601Z,23.58
2019-05-26T11:33:40.974Z,23.88
2019-05-26T11:36:46.172Z,23.82
2019-05-26T11:39:51.327Z,23.75
2019-05-26T11:42:56.494Z,23.83
2019-05-26T11:46:01.613Z,23.83
2019-05-26T11:49:06.860Z,24.19
2019-05-26T11:52:15.252Z,23.99
2019-05-26T11:55:20.628Z,24.12
2019-05-26T11:58:25.770Z,24.35
2019-05-26T12:01:30.966Z,24.75
2019-05-26T12:04:36.108Z,24.67
2019-05-26T12:07:41.403Z,24.70
2019-05-26T12:10:46.565Z,25.00
2019-05-26T12:13:51.855Z,25.19
2019-05-26T12:16:57.177Z,24.80
2019-05-26T12:20:05.109Z,25.27
2019-05-26T12:23:09.369Z,24.41
2019-05-26T12:26:14.589Z,24.98
2019-05-26T12:29:19.750Z,24.75
2019-05-26T12:32:24.902Z,24.99
2019-05-26T12:35:44.882Z,24.46
2019-05-26T12:38:53.140Z,24.07
2019-05-26T12:41:58.316Z,24.32
2019-05-26T12:45:03.715Z,24.05
2019-05-26T12:48:09.917Z,23.53
2019-05-26T12:51:15.311Z,23.89
2019-05-26T12:54:20.482Z,24.84
2019-05-26T12:57:25.685Z,25.19
2019-05-26T13:00:47.668Z,24.83
2019-05-26T13:03:37.692Z,24.84
2019-05-26T13:06:42.934Z,24.95
2019-05-26T13:09:48.171Z,25.07
2019-05-26T13:12:53.541Z,25.41
2019-05-26T13:15:58.873Z,25.07
2019-05-26T13:19:04.123Z,25.28
2019-05-26T13:22:09.485Z,24.57
2019-05-26T13:25:16.299Z,24.01
2019-05-26T13:28:21.502Z,24.03
2019-05-26T13:31:26.805Z,24.35
2019-05-26T13:34:35.503Z,23.96
2019-05-26T13:37:38.771Z,23.98
2019-05-26T13:40:43.926Z,24.30
2019-05-26T13:43:49.260Z,24.00
2019-05-26T13:46:54.434Z,23.60
2019-05-26T13:49:59.856Z,23.67
2019-05-26T13:53:05.118Z,23.99
2019-05-26T13:56:10.248Z,24.27
2019-05-26T13:59:15.444Z,24.05
2019-05-26T14:02:20.644Z,24.59
2019-05-26T14:05:25.928Z,24.27
2019-05-26T14:08:31.127Z,24.70
2019-05-26T14:11:36.328Z,24.78
2019-05-26T14:14:41.527Z,24.42
2019-05-26T14:17:46.723Z,24.71
2019-05-26T14:20:51.952Z,24.49
2019-05-26T14:23:57.254Z,24.48
2019-05-26T14:27:02.590Z,24.83
2019-05-26T14:30:08.159Z,24.24
2019-05-26T14:33:13.328Z,24.47
2019-05-26T14:36:18.521Z,24.75
2019-05-26T14:39:23.822Z,25.56
2019-05-26T14:42:28.998Z,24.80
2019-05-26T14:45:34.192Z,25.50
2019-05-26T14:48:39.705Z,24.57
2019-05-26T14:51:44.948Z,24.38
2019-05-26T14:54:50.147Z,24.76
2019-05-26T14:57:55.352Z,25.17
2019-05-26T15:01:00.561Z,25.08
2019-05-26T15:04:05.767Z,24.41
2019-05-26T15:07:10.942Z,24.96
2019-05-26T15:10:16.379Z,24.60
2019-05-26T15:13:21.532Z,24.07
2019-05-26T15:16:26.708Z,24.57
2019-05-26T15:19:31.926Z,25.32
2019-05-26T15:22:37.343Z,24.67
2019-05-26T15:25:42.682Z,24.93
2019-05-26T15:28:47.955Z,24.77
2019-05-26T15:31:53.156Z,24.71
2019-05-26T15:34:58.419Z,24.82
2019-05-26T15:38:03.721Z,24.25
2019-05-26T15:41:09.119Z,24.92
2019-05-26T15:44:14.386Z,24.59
2019-05-26T15:47:19.586Z,24.54
2019-05-26T15:50:24.915Z,24.31
2019-05-26T15:53:30.155Z,24.23
2019-05-26T15:56:35.422Z,24.49
2019-05-26T15:59:40.639Z,24.10
2019-05-26T16:02:46.853Z,23.98
2019-05-26T16:05:52.045Z,23.77
2019-05-26T16:08:58.848Z,24.48
2019-05-26T16:12:04.569Z,24.20
2019-05-26T16:15:11.742Z,24.08
2019-05-26T16:18:16.973Z,24.18
2019-05-26T16:21:28.149Z,24.10
2019-05-26T16:24:29.190Z,23.68
2019-05-26T16:27:34.391Z,24.56
2019-05-26T16:30:39.579Z,24.70
2019-05-26T16:33:44.804Z,24.24
2019-05-26T16:36:49.935Z,23.93
2019-05-26T16:39:56.001Z,23.90
2019-05-26T16:43:02.424Z,23.40
2019-05-26T16:46:07.836Z,23.35
2019-05-26T16:49:12.971Z,22.84
2019-05-26T16:52:18.162Z,22.78
2019-05-26T16:55:23.428Z,22.43
2019-05-26T16:58:28.574Z,22.55
2019-05-26T17:01:33.782Z,22.83
2019-05-26T17:04:38.961Z,22.90
2019-05-26T17:07:44.209Z,23.44
2019-05-26T17:10:49.362Z,24.48
2019-05-26T17:13:54.494Z,24.19
2019-05-26T17:17:13.697Z,24.47
2019-05-26T17:20:08.099Z,23.58
2019-05-26T17:23:13.267Z,22.73
2019-05-26T17:26:18.513Z,22.25
2019-05-26T17:29:23.661Z,21.57
2019-05-26T17:32:28.812Z,21.71
2019-05-26T17:35:33.998Z,21.77
2019-05-26T17:38:39.190Z,21.50
2019-05-26T17:41:44.420Z,21.53
2019-05-26T17:44:49.610Z,21.01
2019-05-26T17:47:54.799Z,20.72
2019-05-26T17:50:59.992Z,20.58
2019-05-26T17:54:05.498Z,20.56
2019-05-26T17:57:10.707Z,20.16
2019-05-26T18:00:16.294Z,19.71
2019-05-26T18:03:21.500Z,19.49
2019-05-26T18:06:26.672Z,19.33
2019-05-26T18:09:43.589Z,19.06
2019-05-26T18:12:38.882Z,18.98
2019-05-26T18:15:44.101Z,18.95
2019-05-26T18:18:49.318Z,18.94
2019-05-26T18:21:54.485Z,18.54
2019-05-26T18:24:59.825Z,18.54
2019-05-26T18:28:05.211Z,18.47
2019-05-26T18:31:10.371Z,18.32
2019-05-26T18:34:15.665Z,18.21
2019-05-26T18:37:20.830Z,18.21
2019-05-26T18:40:26.084Z,18.24
2019-05-26T18:43:31.228Z,18.16
2019-05-26T18:46:36.549Z,18.00
2019-05-26T18:49:41.763Z,17.91
2019-05-26T18:52:47.091Z,17.79
2019-05-26T18:55:52.318Z,17.62
2019-05-26T18:58:57.558Z,17.40
2019-05-26T19:02:02.822Z,17.26
2019-05-26T19:05:09.048Z,17.19
2019-05-26T19:08:14.427Z,17.20
2019-05-26T19:11:19.639Z,17.05
2019-05-26T19:14:24.847Z,16.86
2019-05-26T19:17:30.104Z,16.72
2019-05-26T19:20:35.266Z,16.60
2019-05-26T19:23:40.530Z,16.40
2019-05-26T19:26:45.707Z,16.16
2019-05-26T19:29:51.029Z,15.95
2019-05-26T19:32:56.177Z,15.84
2019-05-26T19:36:01.344Z,15.72
2019-05-26T19:39:09.150Z,15.71
2019-05-26T19:42:15.375Z,15.67
2019-05-26T19:45:20.597Z,15.63
2019-05-26T19:48:35.719Z,15.39
2019-05-26T19:51:32.706Z,15.34
2019-05-26T19:54:37.896Z,15.32
2019-05-26T19:57:43.196Z,15.20
2019-05-26T20:00:48.590Z,15.06
2019-05-26T20:03:53.805Z,14.95
2019-05-26T20:06:59.104Z,14.81
2019-05-26T20:10:04.593Z,14.82
2019-05-26T20:13:09.878Z,14.65
2019-05-26T20:16:15.014Z,14.60
2019-05-26T20:19:20.257Z,14.50
2019-05-26T20:22:25.391Z,14.51
2019-05-26T20:25:30.536Z,14.29
2019-05-26T20:28:35.832Z,14.23
2019-05-26T20:31:40.982Z,14.09
2019-05-26T20:34:46.197Z,14.13
2019-05-26T20:37:51.502Z,14.02
2019-05-26T20:40:56.806Z,13.87
2019-05-26T20:44:02.080Z,13.77
2019-05-26T20:47:07.518Z,13.75
2019-05-26T20:50:28.019Z,13.66
2019-05-26T20:53:21.226Z,13.59
2019-05-26T20:56:26.416Z,13.48
2019-05-26T20:59:31.613Z,13.44
2019-05-26T21:02:36.894Z,13.36
2019-05-26T21:05:43.024Z,13.46
2019-05-26T21:08:48.266Z,13.33
2019-05-26T21:11:53.404Z,13.30
2019-05-26T21:15:00.895Z,13.23
2019-05-26T21:18:05.466Z,13.10
2019-05-26T21:21:10.726Z,13.10
2019-05-26T21:24:15.866Z,13.02
2019-05-26T21:27:21.065Z,13.02
2019-05-26T21:30:26.233Z,12.83
2019-05-26T21:33:32.540Z,12.76
2019-05-26T21:36:37.733Z,12.68
2019-05-26T21:39:42.893Z,12.61
2019-05-26T21:42:48.098Z,12.56
2019-05-26T21:45:53.245Z,12.54
2019-05-26T21:48:58.422Z,12.56
2019-05-26T21:52:03.569Z,12.50
2019-05-26T21:55:09.899Z,12.42
2019-05-26T21:58:15.029Z,12.35
2019-05-26T22:01:20.241Z,12.40
2019-05-26T22:04:25.466Z,12.40
2019-05-26T22:07:30.682Z,12.28
2019-05-26T22:10:35.832Z,12.22
2019-05-26T22:13:40.997Z,12.23
2019-05-26T22:16:46.210Z,12.17
2019-05-26T22:19:51.356Z,12.10
2019-05-26T22:22:56.604Z,12.06
2019-05-26T22:26:01.686Z,12.01
2019-05-26T22:29:06.915Z,12.09
2019-05-26T22:32:12.217Z,12.04
2019-05-26T22:35:17.440Z,11.92
2019-05-26T22:38:22.548Z,11.94
2019-05-26T22:41:27.734Z,11.93
2019-05-26T22:44:32.895Z,11.89
2019-05-26T22:47:38.085Z,11.83
2019-05-26T22:50:43.209Z,11.75
2019-05-26T22:53:48.413Z,11.74
2019-05-26T22:56:53.642Z,11.79
2019-05-26T22:59:58.911Z,11.83
2019-05-26T23:03:04.067Z,11.95
2019-05-26T23:06:09.285Z,11.80
2019-05-26T23:09:14.545Z,11.74
2019-05-26T23:12:19.720Z,11.60
2019-05-26T23:15:24.896Z,11.48
2019-05-26T23:18:30.149Z,11.37
2019-05-26T23:21:35.286Z,11.32
2019-05-26T23:24:40.458Z,11.25
2019-05-26T23:27:45.545Z,11.23
2019-05-26T23:30:50.705Z,11.18
2019-05-26T23:33:56.030Z,11.23
2019-05-26T23:37:01.161Z,11.26
2019-05-26T23:40:07.017Z,11.16
2019-05-26T23:43:12.171Z,11.15
2019-05-26T23:46:17.323Z,11.19
2019-05-26T23:49:22.527Z,11.18
2019-05-26T23:52:27.685Z,11.06
2019-05-26T23:55:32.779Z,10.95
2019-05-26T23:58:37.946Z,10.84
